x

Buoy E01 - Central Maine Shelf (44032) Wave Buoy

11:04 - Wed 23rd Apr 2014 All times are EDT. -4 hours from GMT.

  • Sig Wave height 3.9ft
  • Peak Period 4s
  • Wind
    25mph, 34mph gusts
  • Sea Temp 41°f
  • Air Temp 44°f
  • Sea Pressure 997.2mb
  • Buoy E01 - Central Maine Shelf
  • Buoy E01 - Central Maine Shelf

More Historic Weather Station data

Upgrade to MSW Pro to gain access to the past 30 days of data for over 8000 Wavebouys and Weather Stations around the globe.

Join Pro

Comparision Forecast

View Surf forecast
   
mer. 04/23 11:04 4ft 4s 25 34 mph 997.2mb 41f 44f
10:04 3ft 4s 25 34 mph 997.1mb 41f 45f
9:04 3.5ft 4s 25 31 mph 997mb 42f 45f
8:04 3ft 4s 25 34 mph 996.4mb 42f 46f
7:04 4ft 3s 29 34 mph 995.6mb 43f 46f
6:04 3.5ft 8s 13 16 mph 995.2mb 43f 47f
5:04 3.5ft 6s 11 13 mph 994.7mb 43f 47f
4:04 3.5ft 8s 16 20 mph 993.9mb 43f 49f
3:04 2.5ft 8s 11 13 mph 993.6mb 44f 45f
2:04 2.5ft 8s 9 11 mph 994.1mb 43f 45f
1:04 2.5ft 8s 4
mph
995.6mb 44f 44f
12:04 3ft 8s 4
mph
995.8mb 42f 44f
11:04 2.5ft 8s 2 4 mph 996mb 42f 45f
10:04 2.5ft 5s 4
mph
995.7mb 42f 44f
9:04 3.5ft 5s 4
mph
995.7mb 42f 43f
8:04 2.5ft 5s 2
mph
995.7mb 42f 43f
7:04 3.5ft 5s 2 4 mph 995.5mb 41f 43f
6:04 3.5ft 5s 4
mph
995.2mb 41f 43f
5:04 4.5ft 5s 4
mph
995.2mb 41f 43f
4:04 4.5ft 6s 9
mph
995.5mb 41f 43f
3:04 4ft 5s 4 7 mph 995.4mb 41f 44f
2:04 5ft 5s 7 9 mph 996mb 42f 44f
1:04 4.5ft 5s 9 11 mph 996.5mb 42f 44f
12:04 5ft 8s 13 16 mph 997mb 42f 45f
mar. 04/22 11:04 4.5ft 8s 11 13 mph 997.4mb 42f 45f
10:04 4.5ft 5s 13 16 mph 998mb 42f 44f
9:04 3.5ft 5s 18 20 mph 998.1mb 42f 45f
8:04 4ft 5s 16 18 mph 998.3mb 42f 45f
7:04 2.5ft 5s 16 18 mph 998.5mb 42f 45f
6:04 4ft 8s 13 16 mph 999.1mb 42f 45f
5:04 3.5ft 11s 11 13 mph 999.5mb 42f 45f
4:04 3ft 8s 9 11 mph 1000.1mb 42f 45f
3:04 3.5ft 6s 9 11 mph 1001.1mb 43f 44f
2:04 3.5ft 8s 9
mph
1002.4mb 42f 44f
1:04 3ft 8s 7 9 mph 1003.2mb 42f 43f
12:04 2.5ft 8s 7 9 mph 1003.8mb 42f 43f
11:04 3ft 5s 9
mph
1004.4mb 42f 43f
10:04 3ft 5s 7
mph
1004.8mb 41f 43f
9:04 3ft 5s 2
mph
1005.2mb 41f 44f
8:04 3ft 5s 4
mph
1005.9mb 41f 42f
7:04 3ft 5s 2
mph
1006mb 41f 42f
6:04 3.5ft 5s 7 9 mph 1005.8mb 41f 43f
5:04 3.5ft 5s 13 16 mph 1005.9mb 41f 43f
4:04 3.5ft 5s 9 11 mph 1006.3mb 41f 44f
3:04 3.5ft 5s 11 13 mph 1006.8mb 41f 43f
2:04 3.5ft 5s 9 13 mph 1007.4mb 41f 43f
1:04 4.5ft 5s 13 18 mph 1008.1mb 41f 44f
12:04 4ft 5s 16 18 mph 1008.8mb 41f 44f
lun. 04/21 11:04 3.5ft 5s 18 20 mph 1009.2mb 41f 44f
10:04 3.5ft 5s 18 22 mph 1009.7mb 41f 44f
9:04 4ft 5s 18 20 mph 1010.2mb 41f 44f
8:04 4.5ft 5s 20 22 mph 1010.6mb 41f 44f
7:04 4ft 5s 20 22 mph 1010.8mb 41f 44f
6:04 3.5ft 5s 20 22 mph 1011.4mb 41f 44f
5:04 4ft 5s 20 22 mph 1012.5mb 41f 44f
4:04 3.5ft 5s 18 22 mph 1013.3mb 41f 43f
3:04 4ft 5s 18 20 mph 1014.3mb 41f 43f
2:04 4ft 5s 16 20 mph 1015.7mb 41f 42f
1:04 3.5ft 5s 18 20 mph 1017.2mb 41f 42f
12:04 3.5ft 4s 18 22 mph 1018.7mb 41f 42f
11:04 3ft 4s 16 18 mph 1020.2mb 40f 41f
10:04 3ft 4s 16 20 mph 1020.4mb 40f 41f
9:04 3ft 4s 16 20 mph 1021mb 40f 41f
8:04 3ft 5s 16 18 mph 1021.6mb 40f 41f
7:04 2.5ft 5s 18 20 mph 1022mb 40f 41f
6:04 2.5ft 4s 16 20 mph 1022.2mb 40f 40f
5:04 2.5ft 4s 13 16 mph 1022.5mb 40f 40f
4:04 2.5ft 4s 11 16 mph 1022.8mb 40f 40f
3:04 2.5ft 4s 11 13 mph 1023.6mb 40f 40f
2:04 2.5ft 4s 11 13 mph 1024.8mb 40f 40f
1:04 2.5ft 4s 11
mph
1025.9mb 40f 40f
12:04 2ft 4s 9 11 mph 1026.9mb 40f 40f
dim. 04/20 11:04 2.5ft 4s 11 13 mph 1027.5mb 40f 41f
10:04 2.5ft 4s 13 16 mph 1028mb 40f 41f
9:04 2.5ft 3s 11 13 mph 1028.7mb 40f 41f
8:04 1.6ft 3s 11 13 mph 1029mb 40f 40f
7:04 1.6ft 3s 11
mph
1029.2mb 40f 41f
6:04 2ft 3s 11 13 mph 1029.6mb 40f 41f
5:04 1.6ft 3s 13 16 mph 1030.3mb 41f 41f
4:04 1.3ft 3s 13 16 mph 1030.3mb 41f 41f
3:04 1.6ft 11s 13 16 mph 1030.7mb 41f 41f
2:04 1.6ft 8s 11 13 mph 1031.4mb 41f 41f
1:04 1.6ft 8s 9
mph
1031.4mb 41f 41f
12:04 2ft 8s 7 9 mph 1031.8mb 41f 40f
11:04 2.5ft 8s 7 9 mph 1032.4mb 40f 40f
10:04 1ft 2s 9 11 mph 1032.9mb 40f 40f
9:04 1.3ft 3s 16 18 mph 1032.2mb 40f 40f
8:04 1.3ft 3s 13 16 mph 1032.8mb 40f 39f
7:04 2.5ft 8s 16 18 mph 1032.1mb 40f 39f
6:04 3ft 8s 16 18 mph 1031.2mb 40f 39f
5:04  -   -  13
mph
1030.4mb 40f 40f